createdAt,value
2023-05-12T00:00:32.377Z,0.62
2023-05-12T00:01:33.345Z,0.48
2023-05-12T00:02:31.775Z,0.59
2023-05-12T00:03:32.666Z,0.49
2023-05-12T00:04:33.058Z,0.60
2023-05-12T00:05:32.598Z,0.49
2023-05-12T00:06:32.660Z,0.59
2023-05-12T00:07:32.697Z,0.76
2023-05-12T00:08:32.779Z,0.65
2023-05-12T00:09:31.812Z,0.79
2023-05-12T00:10:32.864Z,0.55
2023-05-12T00:11:31.928Z,0.62
2023-05-12T00:12:31.973Z,0.59
2023-05-12T00:13:33.064Z,0.52
2023-05-12T00:14:33.064Z,0.60
2023-05-12T00:15:33.109Z,0.62
2023-05-12T00:16:32.323Z,0.74
2023-05-12T00:17:32.254Z,0.41
2023-05-12T00:18:33.365Z,0.44
2023-05-12T00:19:33.321Z,0.68
2023-05-12T00:20:32.382Z,0.51
2023-05-12T00:21:33.403Z,0.68
2023-05-12T00:22:33.448Z,0.65
2023-05-12T00:23:33.532Z,0.49
2023-05-12T00:24:32.561Z,0.76
2023-05-12T00:25:32.618Z,0.64
2023-05-12T00:26:32.668Z,0.55
2023-05-12T00:27:33.719Z,0.55
2023-05-12T00:28:32.800Z,0.49
2023-05-12T00:29:33.835Z,0.50
2023-05-12T00:30:33.878Z,0.55
2023-05-12T00:31:32.931Z,0.60
2023-05-12T00:32:34.050Z,0.54
2023-05-12T00:33:34.028Z,1.24
2023-05-12T00:34:33.054Z,0.59
2023-05-12T00:35:33.102Z,0.53
2023-05-12T00:36:34.271Z,0.69
2023-05-12T00:37:34.215Z,0.55
2023-05-12T00:38:33.259Z,0.79
2023-05-12T00:39:33.314Z,0.45
2023-05-12T00:40:34.356Z,0.83
2023-05-12T00:41:34.410Z,0.65
2023-05-12T00:42:34.460Z,0.61
2023-05-12T00:43:34.499Z,0.53
2023-05-12T00:44:33.540Z,0.52
2023-05-12T00:45:33.595Z,0.58
2023-05-12T00:46:34.640Z,0.56
2023-05-12T00:47:33.704Z,0.41
2023-05-12T00:48:33.756Z,0.56
2023-05-12T00:49:33.796Z,0.34
2023-05-12T00:50:33.819Z,0.50
2023-05-12T00:51:34.858Z,0.57
2023-05-12T00:52:33.915Z,0.62
2023-05-12T00:53:45.431Z,0.68
2023-05-12T00:54:34.973Z,0.61
2023-05-12T00:55:34.950Z,0.51
2023-05-12T00:56:34.946Z,0.56
2023-05-12T00:57:33.936Z,0.88
2023-05-12T00:58:34.961Z,0.55
2023-05-12T00:59:34.925Z,0.89
2023-05-12T01:00:34.918Z,0.49
2023-05-12T01:01:35.045Z,0.58
2023-05-12T01:02:35.032Z,0.42
2023-05-12T01:03:33.995Z,0.49
2023-05-12T01:04:34.976Z,0.53
2023-05-12T01:05:34.980Z,0.49
2023-05-12T01:06:35.051Z,0.47
2023-05-12T01:07:35.097Z,0.54
2023-05-12T01:08:35.144Z,0.39
2023-05-12T01:09:35.196Z,1.10
2023-05-12T01:10:35.254Z,0.57
2023-05-12T01:11:34.299Z,1.10
2023-05-12T01:12:35.353Z,0.64
2023-05-12T01:13:34.418Z,1.02
2023-05-12T01:14:34.464Z,0.59
2023-05-12T01:15:34.517Z,0.68
2023-05-12T01:16:35.588Z,0.30
2023-05-12T01:17:35.824Z,0.40
2023-05-12T01:18:34.716Z,0.88
2023-05-12T01:19:35.700Z,0.77
2023-05-12T01:20:35.813Z,0.53
2023-05-12T01:21:35.790Z,0.65
2023-05-12T01:22:34.847Z,0.56
2023-05-12T01:23:35.942Z,0.60
2023-05-12T01:24:35.948Z,0.53
2023-05-12T01:25:36.002Z,0.42
2023-05-12T01:26:35.051Z,0.64
2023-05-12T01:27:36.132Z,0.48
2023-05-12T01:28:35.144Z,0.50
2023-05-12T01:29:35.212Z,0.45
2023-05-12T01:30:36.265Z,0.46
2023-05-12T01:31:35.379Z,0.73
2023-05-12T01:32:35.402Z,0.49
2023-05-12T01:33:35.416Z,0.49
2023-05-12T01:34:36.481Z,0.33
2023-05-12T01:35:36.512Z,1.20
2023-05-12T01:36:35.586Z,0.81
2023-05-12T01:37:36.614Z,0.49
2023-05-12T01:38:36.634Z,0.40
2023-05-12T01:39:36.707Z,0.51
2023-05-12T01:40:36.730Z,0.73
2023-05-12T01:41:36.798Z,0.46
2023-05-12T01:42:35.835Z,0.57
2023-05-12T01:43:36.861Z,0.60
2023-05-12T01:44:36.957Z,0.62
2023-05-12T01:45:36.970Z,0.40
2023-05-12T01:46:37.049Z,0.49
2023-05-12T01:47:37.103Z,0.61
2023-05-12T01:48:36.141Z,0.67
2023-05-12T01:49:36.187Z,0.48
2023-05-12T01:50:37.248Z,0.63
2023-05-12T01:51:37.308Z,0.50
2023-05-12T01:52:36.383Z,0.54
2023-05-12T01:53:37.414Z,0.75
2023-05-12T01:54:37.450Z,0.55
2023-05-12T01:55:37.608Z,0.64
2023-05-12T01:56:37.561Z,0.45
2023-05-12T01:57:37.594Z,0.35
2023-05-12T01:58:37.735Z,0.67
2023-05-12T01:59:36.692Z,0.48
2023-05-12T02:00:37.809Z,0.45
2023-05-12T02:01:36.805Z,0.69
2023-05-12T02:02:38.580Z,0.52
2023-05-12T02:03:36.977Z,0.76
2023-05-12T02:04:37.878Z,0.55
2023-05-12T02:05:37.922Z,0.60
2023-05-12T02:06:36.816Z,0.84
2023-05-12T02:07:36.799Z,0.61
2023-05-12T02:08:38.433Z,0.59
2023-05-12T02:09:39.080Z,0.63
2023-05-12T02:10:38.505Z,0.73
2023-05-12T02:11:37.373Z,0.62
2023-05-12T02:12:39.184Z,0.58
2023-05-12T02:13:38.664Z,0.45
2023-05-12T02:14:37.179Z,0.50
2023-05-12T02:15:38.164Z,0.37
2023-05-12T02:16:37.242Z,0.37
2023-05-12T02:17:38.268Z,0.44
2023-05-12T02:18:37.211Z,0.59
2023-05-12T02:19:38.248Z,0.71
2023-05-12T02:20:38.284Z,0.57
2023-05-12T02:21:38.332Z,0.56
2023-05-12T02:22:38.404Z,0.69
2023-05-12T02:23:38.470Z,0.34
2023-05-12T02:24:38.526Z,0.76
2023-05-12T02:25:37.558Z,0.61
2023-05-12T02:26:38.600Z,0.49
2023-05-12T02:27:38.668Z,0.41
2023-05-12T02:28:38.677Z,0.92
2023-05-12T02:29:37.739Z,0.47
2023-05-12T02:30:37.794Z,0.34
2023-05-12T02:31:37.923Z,0.61
2023-05-12T02:32:37.915Z,0.39
2023-05-12T02:33:38.948Z,0.71
2023-05-12T02:34:39.005Z,0.59
2023-05-12T02:35:39.045Z,0.61
2023-05-12T02:36:39.082Z,0.58
2023-05-12T02:37:38.184Z,0.71
2023-05-12T02:38:38.183Z,0.67
2023-05-12T02:39:38.267Z,0.50
2023-05-12T02:40:39.313Z,0.82
2023-05-12T02:41:39.329Z,0.74
2023-05-12T02:42:38.524Z,0.46
2023-05-12T02:43:39.424Z,1.11
2023-05-12T02:44:38.498Z,0.68
2023-05-12T02:45:39.538Z,0.65
2023-05-12T02:46:38.598Z,0.64
2023-05-12T02:47:39.675Z,0.58
2023-05-12T02:48:39.649Z,0.63
2023-05-12T02:49:39.714Z,0.66
2023-05-12T02:50:39.759Z,0.56
2023-05-12T02:51:39.792Z,0.54
2023-05-12T02:52:39.838Z,0.57
2023-05-12T02:53:38.883Z,0.42
2023-05-12T02:54:39.941Z,0.69
2023-05-12T02:55:39.987Z,0.69
2023-05-12T02:56:40.060Z,0.55
2023-05-12T02:57:39.096Z,0.48
2023-05-12T02:58:40.108Z,0.80
2023-05-12T02:59:39.155Z,0.55
2023-05-12T03:00:40.207Z,0.43
2023-05-12T03:01:40.276Z,0.58
2023-05-12T03:02:40.362Z,0.49
2023-05-12T03:03:39.536Z,0.65
2023-05-12T03:04:39.380Z,0.54
2023-05-12T03:05:40.419Z,0.54
2023-05-12T03:06:39.482Z,0.62
2023-05-12T03:07:39.537Z,0.53
2023-05-12T03:08:40.593Z,0.63
2023-05-12T03:09:40.614Z,0.54
2023-05-12T03:10:39.654Z,0.57
2023-05-12T03:11:39.708Z,0.43
2023-05-12T03:12:40.784Z,0.42
2023-05-12T03:13:40.796Z,0.34
2023-05-12T03:14:40.850Z,0.32
2023-05-12T03:15:40.880Z,0.72
2023-05-12T03:16:40.953Z,0.56
2023-05-12T03:17:41.031Z,0.67
2023-05-12T03:18:41.029Z,0.73
2023-05-12T03:19:41.085Z,0.53
2023-05-12T03:20:41.117Z,0.53
2023-05-12T03:21:41.163Z,0.57
2023-05-12T03:22:40.201Z,0.51
2023-05-12T03:23:41.260Z,0.46
2023-05-12T03:24:41.331Z,0.39
2023-05-12T03:25:41.371Z,0.52
2023-05-12T03:26:40.444Z,0.55
2023-05-12T03:27:41.460Z,0.59
2023-05-12T03:28:41.589Z,0.62
2023-05-12T03:29:40.562Z,0.75
2023-05-12T03:30:41.598Z,0.44
2023-05-12T03:31:41.731Z,0.53
2023-05-12T03:32:40.804Z,0.63
2023-05-12T03:33:40.770Z,0.81
2023-05-12T03:34:41.805Z,0.60
2023-05-12T03:35:41.807Z,0.64
2023-05-12T03:36:40.832Z,0.50
2023-05-12T03:37:40.931Z,0.88
2023-05-12T03:38:41.962Z,0.65
2023-05-12T03:39:42.016Z,0.46
2023-05-12T03:40:41.024Z,0.95
2023-05-12T03:41:42.087Z,0.26
2023-05-12T03:42:42.113Z,0.32
2023-05-12T03:43:41.595Z,0.56
2023-05-12T03:44:42.224Z,0.36
2023-05-12T03:45:42.239Z,0.48
2023-05-12T03:46:42.446Z,0.60
2023-05-12T03:47:42.559Z,0.62
2023-05-12T03:48:41.352Z,0.60
2023-05-12T03:49:42.423Z,0.58
2023-05-12T03:50:41.448Z,0.60
2023-05-12T03:51:41.488Z,0.69
2023-05-12T03:52:42.542Z,0.75
2023-05-12T03:53:42.552Z,0.54
2023-05-12T03:54:42.564Z,0.55
2023-05-12T03:55:42.621Z,0.75
2023-05-12T03:56:41.649Z,0.36
2023-05-12T03:57:42.688Z,0.69
2023-05-12T03:58:42.692Z,0.62
2023-05-12T03:59:41.729Z,0.42
2023-05-12T04:00:44.119Z,0.47
2023-05-12T04:01:42.801Z,0.48
2023-05-12T04:02:42.894Z,0.72
2023-05-12T04:03:42.045Z,0.35
2023-05-12T04:04:41.916Z,0.57
2023-05-12T04:05:42.940Z,0.78
2023-05-12T04:06:42.992Z,0.43
2023-05-12T04:07:43.026Z,0.48
2023-05-12T04:08:42.311Z,0.40
2023-05-12T04:09:42.076Z,0.50
2023-05-12T04:10:43.112Z,0.40
2023-05-12T04:11:42.161Z,0.56
2023-05-12T04:12:43.195Z,0.54
2023-05-12T04:13:43.230Z,0.51
2023-05-12T04:14:43.621Z,0.52
2023-05-12T04:15:42.299Z,0.49
2023-05-12T04:16:43.390Z,0.68
2023-05-12T04:17:43.433Z,0.64
2023-05-12T04:18:43.532Z,0.67
2023-05-12T04:19:42.451Z,0.47
2023-05-12T04:20:43.509Z,0.41
2023-05-12T04:21:43.566Z,0.46
2023-05-12T04:22:43.573Z,0.45
2023-05-12T04:23:42.627Z,0.39
2023-05-12T04:24:43.685Z,0.65
2023-05-12T04:25:43.699Z,0.58
2023-05-12T04:26:42.747Z,0.80
2023-05-12T04:27:43.839Z,0.55
2023-05-12T04:28:43.821Z,0.55
2023-05-12T04:29:43.877Z,0.31
2023-05-12T04:30:42.916Z,0.58
2023-05-12T04:31:43.993Z,0.40
2023-05-12T04:32:44.025Z,0.54
2023-05-12T04:33:45.295Z,0.36
2023-05-12T04:34:43.035Z,0.73
2023-05-12T04:35:44.029Z,0.47
2023-05-12T04:36:44.003Z,0.51
2023-05-12T04:37:42.990Z,0.49
2023-05-12T04:38:43.996Z,0.62
2023-05-12T04:39:43.994Z,0.45
2023-05-12T04:40:44.013Z,0.71
2023-05-12T04:41:43.981Z,0.79
2023-05-12T04:42:43.994Z,0.45
2023-05-12T04:44:42.969Z,0.45
2023-05-12T04:45:43.990Z,0.61
2023-05-12T04:46:44.008Z,0.46
2023-05-12T04:47:42.983Z,0.65
2023-05-12T04:48:44.002Z,0.50
2023-05-12T04:49:42.942Z,0.55
2023-05-12T04:50:43.936Z,0.42
2023-05-12T04:51:42.964Z,0.86
2023-05-12T04:52:42.916Z,0.44
2023-05-12T04:53:43.890Z,0.43
2023-05-12T04:54:43.888Z,0.58
2023-05-12T04:55:43.909Z,0.55
2023-05-12T04:56:42.953Z,0.67
2023-05-12T04:57:43.901Z,0.47
2023-05-12T04:58:42.883Z,0.47
2023-05-12T04:59:42.864Z,0.64
2023-05-12T05:00:42.881Z,0.50
2023-05-12T05:01:44.073Z,0.79
2023-05-12T05:02:42.925Z,0.76
2023-05-12T05:03:44.132Z,0.59
2023-05-12T05:04:42.903Z,0.52
2023-05-12T05:05:43.849Z,0.64
2023-05-12T05:06:42.845Z,0.48
2023-05-12T05:07:42.816Z,0.71
2023-05-12T05:08:42.804Z,0.72
2023-05-12T05:09:43.794Z,0.88
2023-05-12T05:10:42.805Z,0.73
2023-05-12T05:11:43.798Z,1.05
2023-05-12T05:12:43.801Z,0.99
2023-05-12T05:13:43.768Z,0.81
2023-05-12T05:14:42.774Z,0.72
2023-05-12T05:15:42.774Z,0.98
2023-05-12T05:16:43.737Z,1.06
2023-05-12T05:17:43.755Z,1.21
2023-05-12T05:18:42.752Z,0.78
2023-05-12T05:19:52.837Z,0.73
2023-05-12T05:20:45.596Z,1.06
2023-05-12T05:21:43.764Z,1.02
2023-05-12T05:22:43.745Z,1.03
2023-05-12T05:23:43.735Z,1.79
2023-05-12T05:24:43.709Z,1.15
2023-05-12T05:25:43.696Z,0.91
2023-05-12T05:26:43.721Z,1.16
2023-05-12T05:27:42.691Z,1.02
2023-05-12T05:28:43.717Z,1.15
2023-05-12T05:29:42.692Z,1.28
2023-05-12T05:30:43.669Z,0.78
2023-05-12T05:31:42.727Z,1.24
2023-05-12T05:32:43.813Z,1.23
2023-05-12T05:33:42.645Z,1.04
2023-05-12T05:34:42.764Z,1.25
2023-05-12T05:35:43.672Z,1.10
2023-05-12T05:36:42.664Z,1.38
2023-05-12T05:37:42.662Z,1.52
2023-05-12T05:38:43.615Z,1.10
2023-05-12T05:39:42.633Z,1.26
2023-05-12T05:40:52.864Z,1.71
2023-05-12T05:41:43.593Z,1.69
2023-05-12T05:42:43.583Z,1.37
2023-05-12T05:43:43.615Z,1.62
2023-05-12T05:44:43.636Z,1.37
2023-05-12T05:45:43.578Z,1.77
2023-05-12T05:46:43.654Z,1.53
2023-05-12T05:47:42.623Z,1.59
2023-05-12T05:48:43.560Z,1.91
2023-05-12T05:49:43.556Z,2.91
2023-05-12T05:50:42.537Z,1.93
2023-05-12T05:51:43.539Z,2.42
2023-05-12T05:52:42.583Z,3.09
2023-05-12T05:53:43.521Z,2.12
2023-05-12T05:54:43.508Z,1.51
2023-05-12T05:55:42.517Z,1.80
2023-05-12T05:56:43.525Z,1.61
2023-05-12T05:57:42.485Z,2.07
2023-05-12T05:58:43.497Z,1.89
2023-05-12T05:59:43.510Z,2.27
2023-05-12T06:00:42.496Z,1.93
2023-05-12T06:01:43.466Z,1.86
2023-05-12T06:02:42.565Z,1.71
2023-05-12T06:03:43.581Z,2.19
2023-05-12T06:04:43.449Z,1.89
2023-05-12T06:05:42.449Z,1.78
2023-05-12T06:06:43.478Z,2.14
2023-05-12T06:07:42.434Z,2.14
2023-05-12T06:08:42.458Z,2.63
2023-05-12T06:09:43.421Z,2.02
2023-05-12T06:10:42.403Z,2.44
2023-05-12T06:11:43.409Z,2.46
2023-05-12T06:12:43.425Z,2.55
2023-05-12T06:13:43.409Z,2.18
2023-05-12T06:14:42.388Z,2.35
2023-05-12T06:15:43.389Z,2.40
2023-05-12T06:16:42.410Z,2.10
2023-05-12T06:17:42.368Z,2.38
2023-05-12T06:18:43.478Z,2.58
2023-05-12T06:19:42.341Z,2.61
2023-05-12T06:20:43.391Z,3.34
2023-05-12T06:21:42.335Z,2.12
2023-05-12T06:22:43.370Z,2.82
2023-05-12T06:23:43.454Z,2.47
2023-05-12T06:24:43.505Z,1.90
2023-05-12T06:25:42.528Z,2.27
2023-05-12T06:26:42.569Z,3.48
2023-05-12T06:27:43.604Z,2.30
2023-05-12T06:28:42.623Z,2.64
2023-05-12T06:29:42.654Z,2.78
2023-05-12T06:30:42.717Z,2.50
2023-05-12T06:31:42.785Z,2.42
2023-05-12T06:32:43.796Z,2.67
2023-05-12T06:33:42.835Z,2.36
2023-05-12T06:34:42.860Z,2.70
2023-05-12T06:35:42.879Z,2.63
2023-05-12T06:36:42.922Z,2.69
2023-05-12T06:37:43.948Z,2.32
2023-05-12T06:38:42.965Z,2.20
2023-05-12T06:39:44.003Z,2.76
2023-05-12T06:40:43.070Z,2.21
2023-05-12T06:41:44.070Z,1.74
2023-05-12T06:42:43.069Z,2.23
2023-05-12T06:43:44.107Z,2.39
2023-05-12T06:44:44.130Z,2.75
2023-05-12T06:45:43.164Z,2.22
2023-05-12T06:46:43.197Z,2.14
2023-05-12T06:47:44.242Z,2.33
2023-05-12T06:48:45.286Z,2.14
2023-05-12T06:49:44.280Z,2.28
2023-05-12T06:50:44.290Z,2.31
2023-05-12T06:51:44.291Z,2.52
2023-05-12T06:52:44.301Z,2.43
2023-05-12T06:53:43.366Z,2.25
2023-05-12T06:54:44.365Z,2.75
2023-05-12T06:55:44.410Z,2.24
2023-05-12T06:56:44.410Z,2.66
2023-05-12T06:57:43.412Z,2.10
2023-05-12T06:58:43.421Z,2.23
2023-05-12T06:59:43.408Z,2.37
2023-05-12T07:00:43.454Z,1.90
2023-05-12T07:01:44.670Z,2.35
2023-05-12T07:02:44.563Z,2.17
2023-05-12T07:03:43.651Z,2.06
2023-05-12T07:04:43.654Z,1.79
2023-05-12T07:05:43.694Z,1.93
2023-05-12T07:06:44.728Z,2.13
2023-05-12T07:07:45.768Z,1.81
2023-05-12T07:08:44.811Z,1.63
2023-05-12T07:09:44.861Z,1.72
2023-05-12T07:10:44.945Z,1.58
2023-05-12T07:11:44.971Z,1.99
2023-05-12T07:12:45.035Z,1.75
2023-05-12T07:13:45.050Z,1.98
2023-05-12T07:14:44.078Z,1.50
2023-05-12T07:15:45.152Z,2.52
2023-05-12T07:16:45.171Z,1.74
2023-05-12T07:17:45.287Z,1.39
2023-05-12T07:18:44.278Z,1.77
2023-05-12T07:19:45.268Z,2.28
2023-05-12T07:20:45.303Z,1.97
2023-05-12T07:21:45.325Z,1.91
2023-05-12T07:22:44.381Z,2.06
2023-05-12T07:23:45.367Z,2.01
2023-05-12T07:24:44.407Z,1.87
2023-05-12T07:25:44.507Z,1.82
2023-05-12T07:26:44.431Z,1.62
2023-05-12T07:27:44.454Z,1.94
2023-05-12T07:28:45.593Z,1.88
2023-05-12T07:29:45.509Z,1.48
2023-05-12T07:30:44.526Z,1.95
2023-05-12T07:31:45.643Z,1.61
2023-05-12T07:32:44.634Z,1.45
2023-05-12T07:33:44.590Z,1.94
2023-05-12T07:34:45.600Z,1.75
2023-05-12T07:35:45.621Z,1.47
2023-05-12T07:36:44.633Z,1.61
2023-05-12T07:37:45.636Z,1.10
2023-05-12T07:38:44.641Z,1.59
2023-05-12T07:39:45.660Z,2.07
2023-05-12T07:40:44.677Z,1.51
2023-05-12T07:41:45.696Z,1.46
2023-05-12T07:42:45.693Z,2.02
2023-05-12T07:43:44.721Z,1.64
2023-05-12T07:44:45.902Z,1.69
2023-05-12T07:45:45.751Z,1.90
2023-05-12T07:46:46.023Z,2.02
2023-05-12T07:47:45.817Z,1.74
2023-05-12T07:48:45.797Z,1.69
2023-05-12T07:49:45.807Z,1.75
2023-05-12T07:50:45.830Z,2.29
2023-05-12T07:51:44.914Z,1.81
2023-05-12T07:52:45.844Z,1.75
2023-05-12T07:53:44.909Z,2.18
2023-05-12T07:54:44.912Z,2.35
2023-05-12T07:55:44.950Z,1.92
2023-05-12T07:56:46.023Z,2.17
2023-05-12T07:57:45.060Z,2.20
2023-05-12T07:58:47.291Z,2.60
2023-05-12T07:59:46.168Z,1.99
2023-05-12T08:00:46.349Z,2.21
2023-05-12T08:01:46.310Z,2.08
2023-05-12T08:02:46.483Z,1.99
2023-05-12T08:03:45.442Z,1.89
2023-05-12T08:04:46.359Z,2.13
2023-05-12T08:05:46.435Z,2.19
2023-05-12T08:06:46.465Z,1.86
2023-05-12T08:07:46.469Z,1.62
2023-05-12T08:08:46.535Z,1.83
2023-05-12T08:09:46.595Z,2.10
2023-05-12T08:10:45.642Z,2.05
2023-05-12T08:11:49.411Z,1.55
2023-05-12T08:12:45.939Z,1.68
2023-05-12T08:13:46.934Z,1.97
2023-05-12T08:14:46.938Z,1.99
2023-05-12T08:15:46.961Z,1.35
2023-05-12T08:16:47.071Z,2.03
2023-05-12T08:17:47.043Z,1.96
2023-05-12T08:18:46.124Z,1.83
2023-05-12T08:19:46.050Z,1.83
2023-05-12T08:20:46.055Z,1.74
2023-05-12T08:21:47.070Z,1.84
2023-05-12T08:22:47.069Z,1.82
2023-05-12T08:23:46.096Z,1.77
2023-05-12T08:24:47.112Z,1.66
2023-05-12T08:25:49.152Z,1.68
2023-05-12T08:26:47.162Z,1.55
2023-05-12T08:27:47.129Z,1.85
2023-05-12T08:28:46.093Z,1.74
2023-05-12T08:29:47.094Z,1.52
2023-05-12T08:30:46.164Z,1.86
2023-05-12T08:31:47.105Z,1.76
2023-05-12T08:32:46.216Z,2.14
2023-05-12T08:33:47.190Z,1.47
2023-05-12T08:34:47.040Z,2.41
2023-05-12T08:35:46.075Z,1.92
2023-05-12T08:36:47.155Z,1.71
2023-05-12T08:37:47.028Z,1.25
2023-05-12T08:38:47.048Z,1.75
2023-05-12T08:39:47.016Z,1.55
2023-05-12T08:40:47.019Z,1.71
2023-05-12T08:41:46.446Z,1.52
2023-05-12T08:42:46.017Z,1.85
2023-05-12T08:43:47.938Z,2.36
2023-05-12T08:44:46.980Z,1.90
2023-05-12T08:45:46.986Z,1.77
2023-05-12T08:46:47.470Z,1.50
2023-05-12T08:47:47.006Z,1.77
2023-05-12T08:48:47.070Z,1.66
2023-05-12T08:49:45.961Z,2.05
2023-05-12T08:50:46.935Z,1.62
2023-05-12T08:51:56.727Z,3.32
2023-05-12T08:52:46.939Z,1.88
2023-05-12T08:53:45.927Z,1.47
2023-05-12T08:54:55.570Z,1.69
2023-05-12T08:56:01.289Z,1.79
2023-05-12T08:57:46.050Z,1.64
2023-05-12T08:58:45.875Z,1.76
2023-05-12T08:59:45.880Z,1.75
2023-05-12T09:00:46.907Z,1.43
2023-05-12T09:01:45.899Z,2.52
2023-05-12T09:02:53.876Z,1.45
2023-05-12T09:03:46.972Z,1.96
2023-05-12T09:04:47.124Z,1.90
2023-05-12T09:05:45.888Z,1.89
2023-05-12T09:06:45.841Z,1.67
2023-05-12T09:07:45.855Z,1.58
2023-05-12T09:08:46.899Z,2.15
2023-05-12T09:09:46.815Z,1.93
2023-05-12T09:10:46.808Z,1.92
2023-05-12T09:11:45.802Z,1.77
2023-05-12T09:12:46.798Z,1.63
2023-05-12T09:13:46.799Z,1.78
2023-05-12T09:14:46.805Z,1.86
2023-05-12T09:15:46.776Z,1.65
2023-05-12T09:16:46.888Z,1.78
2023-05-12T09:17:45.854Z,2.03
2023-05-12T09:18:45.823Z,1.60
2023-05-12T09:19:45.758Z,1.63
2023-05-12T09:20:46.884Z,1.70
2023-05-12T09:21:45.748Z,1.35
2023-05-12T09:22:45.730Z,1.67
2023-05-12T09:23:45.731Z,1.44
2023-05-12T09:24:45.739Z,1.55
2023-05-12T09:25:46.730Z,1.72
2023-05-12T09:26:45.737Z,1.47
2023-05-12T09:27:46.702Z,1.59
2023-05-12T09:28:46.697Z,1.57
2023-05-12T09:29:55.612Z,1.32
2023-05-12T09:30:46.672Z,1.32
2023-05-12T09:31:45.720Z,1.58
2023-05-12T09:32:46.729Z,2.27
2023-05-12T09:33:45.685Z,2.04
2023-05-12T09:34:45.693Z,2.16
2023-05-12T09:35:46.652Z,1.87
2023-05-12T09:36:45.695Z,1.82
2023-05-12T09:37:46.687Z,1.92
2023-05-12T09:38:46.661Z,1.89
2023-05-12T09:39:46.668Z,2.52
2023-05-12T09:40:46.641Z,2.07
2023-05-12T09:41:45.956Z,1.85
2023-05-12T09:42:46.634Z,1.87
2023-05-12T09:43:45.611Z,1.74
2023-05-12T09:44:46.593Z,2.05
2023-05-12T09:45:45.603Z,2.01
2023-05-12T09:46:46.698Z,1.69
2023-05-12T09:47:47.012Z,1.40
2023-05-12T09:48:45.716Z,1.89
2023-05-12T09:49:46.780Z,1.13
2023-05-12T09:50:48.107Z,1.21
2023-05-12T09:51:46.001Z,1.30
2023-05-12T09:52:46.540Z,1.07
2023-05-12T09:53:46.087Z,1.43
2023-05-12T09:54:47.121Z,1.05
2023-05-12T09:55:47.165Z,1.09
2023-05-12T09:56:47.165Z,1.00
2023-05-12T09:57:46.174Z,0.61
2023-05-12T09:58:47.198Z,0.65
2023-05-12T09:59:46.193Z,1.01
2023-05-12T10:00:59.282Z,1.15
2023-05-12T10:01:47.215Z,0.74
2023-05-12T10:02:47.223Z,1.07
2023-05-12T10:03:46.209Z,0.68
2023-05-12T10:04:47.199Z,0.68
2023-05-12T10:05:47.170Z,0.57
2023-05-12T10:06:46.165Z,0.76
2023-05-12T10:07:48.200Z,0.80
2023-05-12T10:08:47.175Z,0.73
2023-05-12T10:09:46.162Z,0.66
2023-05-12T10:10:47.162Z,0.78
2023-05-12T10:11:47.135Z,0.83
2023-05-12T10:12:47.118Z,1.04
2023-05-12T10:13:47.112Z,0.86
2023-05-12T10:14:47.099Z,0.83
2023-05-12T10:15:47.126Z,0.89
2023-05-12T10:16:47.116Z,0.66
2023-05-12T10:17:46.117Z,0.72
2023-05-12T10:18:47.164Z,0.82
2023-05-12T10:19:47.139Z,0.86
2023-05-12T10:20:47.181Z,0.75
2023-05-12T10:21:47.214Z,0.75
2023-05-12T10:22:47.182Z,0.91
2023-05-12T10:23:46.299Z,0.62
2023-05-12T10:24:46.243Z,0.68
2023-05-12T10:25:46.271Z,0.91
2023-05-12T10:26:47.300Z,0.62
2023-05-12T10:27:46.313Z,0.87
2023-05-12T10:28:46.297Z,1.12
2023-05-12T10:29:47.325Z,0.98
2023-05-12T10:30:47.333Z,0.89
2023-05-12T10:31:47.442Z,1.00
2023-05-12T10:32:47.422Z,0.90
2023-05-12T10:33:47.416Z,0.92
2023-05-12T10:34:46.500Z,0.85
2023-05-12T10:35:49.307Z,0.81
2023-05-12T10:36:47.534Z,0.69
2023-05-12T10:37:47.507Z,0.97
2023-05-12T10:38:46.503Z,0.87
2023-05-12T10:39:47.777Z,1.00
2023-05-12T10:40:47.500Z,1.28
2023-05-12T10:41:47.473Z,0.72
2023-05-12T10:42:47.504Z,0.95
2023-05-12T10:43:47.481Z,0.61
2023-05-12T10:44:47.480Z,0.97
2023-05-12T10:45:46.472Z,0.98
2023-05-12T10:46:46.522Z,0.77
2023-05-12T10:47:47.584Z,0.77
2023-05-12T10:48:47.437Z,1.18
2023-05-12T10:49:46.450Z,0.71
2023-05-12T10:50:47.450Z,0.82
2023-05-12T10:51:46.409Z,0.70
2023-05-12T10:52:46.426Z,0.67
2023-05-12T10:53:50.160Z,0.44
2023-05-12T10:54:47.386Z,0.49
2023-05-12T10:55:47.618Z,0.62
2023-05-12T10:56:46.683Z,0.57
2023-05-12T10:57:46.556Z,0.52
2023-05-12T10:58:46.640Z,0.65
2023-05-12T10:59:47.574Z,0.83
2023-05-12T11:00:47.916Z,0.70
2023-05-12T11:01:48.146Z,0.78
2023-05-12T11:02:48.545Z,0.85
2023-05-12T11:03:48.466Z,0.65
2023-05-12T11:04:46.652Z,0.84
2023-05-12T11:05:47.633Z,0.75
2023-05-12T11:06:48.740Z,0.53
2023-05-12T11:07:47.394Z,0.53
2023-05-12T11:08:48.213Z,0.49
2023-05-12T11:09:53.557Z,0.70
2023-05-12T11:10:47.595Z,0.43
2023-05-12T11:11:47.595Z,0.84
2023-05-12T11:12:46.547Z,0.88
2023-05-12T11:13:47.518Z,0.74
2023-05-12T11:14:46.509Z,0.86
2023-05-12T11:15:47.500Z,0.62
2023-05-12T11:16:47.555Z,0.61
2023-05-12T11:17:46.560Z,0.48
2023-05-12T11:18:47.537Z,0.59
2023-05-12T11:19:47.485Z,0.74
2023-05-12T11:20:47.478Z,0.68
2023-05-12T11:21:47.461Z,0.72
2023-05-12T11:22:47.469Z,0.98
2023-05-12T11:23:46.455Z,0.65
2023-05-12T11:24:47.450Z,0.76
2023-05-12T11:25:46.455Z,1.06
2023-05-12T11:26:47.451Z,0.60
2023-05-12T11:27:47.633Z,0.74
2023-05-12T11:28:47.509Z,0.58
2023-05-12T11:29:46.519Z,0.88
2023-05-12T11:30:47.571Z,0.76
2023-05-12T11:31:46.619Z,1.04
2023-05-12T11:32:46.630Z,0.82
2023-05-12T11:33:46.628Z,0.80
2023-05-12T11:34:46.652Z,0.86
2023-05-12T11:35:46.707Z,0.64
2023-05-12T11:36:47.707Z,0.66
2023-05-12T11:37:46.734Z,0.84
2023-05-12T11:38:47.769Z,0.76
2023-05-12T11:39:47.779Z,0.91
2023-05-12T11:40:46.825Z,0.73
2023-05-12T11:41:46.854Z,1.00
2023-05-12T11:42:46.851Z,0.96
2023-05-12T11:43:46.923Z,0.95
2023-05-12T11:44:46.882Z,0.81
2023-05-12T11:45:46.931Z,1.04
2023-05-12T11:46:47.940Z,0.82
2023-05-12T11:47:48.013Z,0.99
2023-05-12T11:48:48.018Z,0.71
2023-05-12T11:49:47.021Z,1.43
2023-05-12T11:50:47.059Z,1.04
2023-05-12T11:51:47.093Z,0.76
2023-05-12T11:52:47.103Z,0.69
2023-05-12T11:53:47.125Z,1.14
2023-05-12T11:54:48.143Z,1.26
2023-05-12T11:55:48.170Z,1.08
2023-05-12T11:56:47.236Z,1.17
2023-05-12T11:57:47.241Z,1.22
2023-05-12T11:58:48.303Z,1.39
2023-05-12T11:59:48.372Z,1.29
2023-05-12T12:00:48.343Z,1.20
2023-05-12T12:01:48.410Z,0.93
2023-05-12T12:02:47.510Z,0.87
2023-05-12T12:03:48.602Z,0.58
2023-05-12T12:04:48.552Z,0.60
2023-05-12T12:05:47.604Z,0.49
2023-05-12T12:06:47.613Z,0.71
2023-05-12T12:07:48.640Z,0.86
2023-05-12T12:08:48.671Z,0.56
2023-05-12T12:09:48.697Z,0.73
2023-05-12T12:10:47.724Z,0.60
2023-05-12T12:11:48.738Z,0.51
2023-05-12T12:12:48.773Z,0.55
2023-05-12T12:13:48.780Z,0.49
2023-05-12T12:14:49.108Z,0.72
2023-05-12T12:15:49.012Z,0.85
2023-05-12T12:16:47.843Z,0.80
2023-05-12T12:17:48.946Z,0.56
2023-05-12T12:18:48.000Z,0.76
2023-05-12T12:19:47.961Z,0.86
2023-05-12T12:20:47.988Z,0.68
2023-05-12T12:21:48.005Z,0.82
2023-05-12T12:22:49.011Z,0.95
2023-05-12T12:23:51.312Z,0.82
2023-05-12T12:24:48.027Z,0.98
2023-05-12T12:25:48.020Z,1.29
2023-05-12T12:26:48.005Z,1.18
2023-05-12T12:27:48.013Z,1.23
2023-05-12T12:28:48.013Z,1.10
2023-05-12T12:29:48.002Z,1.26
2023-05-12T12:30:48.988Z,0.92
2023-05-12T12:31:49.077Z,1.14
2023-05-12T12:32:47.996Z,0.79
2023-05-12T12:33:48.955Z,0.93
2023-05-12T12:34:47.944Z,1.09
2023-05-12T12:35:47.944Z,0.88
2023-05-12T12:36:47.947Z,0.81
2023-05-12T12:37:47.917Z,1.09
2023-05-12T12:38:47.960Z,1.01
2023-05-12T12:39:48.928Z,1.32
2023-05-12T12:40:48.915Z,0.94
2023-05-12T12:41:47.939Z,0.94
2023-05-12T12:42:47.888Z,0.95
2023-05-12T12:43:48.891Z,1.11
2023-05-12T12:44:48.906Z,0.98
2023-05-12T12:45:47.879Z,0.86
2023-05-12T12:46:47.906Z,1.27
2023-05-12T12:47:48.934Z,1.10
2023-05-12T12:48:47.859Z,1.04
2023-05-12T12:49:48.871Z,1.13
2023-05-12T12:50:48.861Z,1.06
2023-05-12T12:51:47.841Z,0.96
2023-05-12T12:52:48.909Z,1.22
2023-05-12T12:53:48.852Z,1.04
2023-05-12T12:54:48.824Z,0.87
2023-05-12T12:55:47.838Z,0.83
2023-05-12T12:56:48.821Z,0.95
2023-05-12T12:57:48.801Z,1.38
2023-05-12T12:58:47.801Z,0.98
2023-05-12T12:59:48.790Z,1.49
2023-05-12T13:00:48.847Z,1.02
2023-05-12T13:01:48.824Z,0.95
2023-05-12T13:02:48.855Z,1.05
2023-05-12T13:03:47.790Z,0.88
2023-05-12T13:04:48.801Z,1.05
2023-05-12T13:05:48.761Z,0.64
2023-05-12T13:06:48.738Z,1.39
2023-05-12T13:07:47.769Z,1.20
2023-05-12T13:08:47.752Z,0.65
2023-05-12T13:09:48.746Z,1.16
2023-05-12T13:10:48.761Z,1.13
2023-05-12T13:11:47.767Z,0.91
2023-05-12T13:12:47.720Z,1.23
2023-05-12T13:13:48.721Z,0.85
2023-05-12T13:14:48.739Z,0.66
2023-05-12T13:15:48.736Z,0.98
2023-05-12T13:16:47.771Z,0.86
2023-05-12T13:17:48.822Z,0.94
2023-05-12T13:18:47.825Z,1.19
2023-05-12T13:19:48.851Z,1.15
2023-05-12T13:20:48.830Z,1.46